Cincinnati, Ohio
Traffic Map
Current Weather Conditions
Cincinnati, Ohio
Clear Haze
Clear
22°
Feels Like: 22°
Wind Chill: 22° Ceiling: Unl
Heat Index: 22° Visibility: 3mi
Dew Point: 19° Wind: 0mph
Humidity: 89% Direction: ° ()
Pressure: 30.3in Gusts: 0mph
Raw Report DataKLUK 110153Z 00000KT 3SM BR CLR M06/M07 A3030 RMK AO2 SLP268 T10561072
Traffic Incident Summary
Active as of:
Severity:
Category:
InformationThere was an issue retrieving the traffic information for this location. Please try a different location or try again shortly.
Advertisements